Time;durP1;ratioP1;P1;durP2;ratioP2;P2;SDS_P1;SDS_P2;PMS_P1;PMS_P2;Temp;Humidity;BMP_temperature;BMP_pressure;BME280_temperature;BME280_humidity;BME280_pressure;Samples;Min_cycle;Max_cycle;Signal;HPM_P1;HPM_P2
2022/05/28 00:00:59;;;;;;;1.23;0.90;;;;;;;24.26;46.33;99776.91;5063472;28;20068;-85
2022/05/28 00:03:27;;;;;;;3.13;1.10;;;;;;;24.26;46.29;99775.09;5045682;28;20075;-85
2022/05/28 00:05:53;;;;;;;1.88;0.88;;;;;;;24.23;46.58;99775.31;5043764;28;20032;-84
2022/05/28 00:08:19;;;;;;;1.80;1.10;;;;;;;24.21;46.50;99768.38;5057675;28;20025;-84
2022/05/28 00:10:46;;;;;;;1.67;0.85;;;;;;;24.21;46.48;99765.72;5040444;28;20103;-85
2022/05/28 00:13:12;;;;;;;1.98;1.05;;;;;;;24.20;46.34;99759.50;5039776;28;20063;-85
2022/05/28 00:15:41;;;;;;;1.95;1.00;;;;;;;24.19;46.24;99762.28;5039513;28;20090;-86
2022/05/28 00:18:08;;;;;;;1.90;1.00;;;;;;;24.18;46.39;99752.59;5056307;28;20029;-82
2022/05/28 00:20:34;;;;;;;2.38;1.17;;;;;;;24.19;46.35;99754.28;5056550;28;20025;-85
2022/05/28 00:23:00;;;;;;;2.25;0.95;;;;;;;24.17;46.32;99748.22;5056906;28;20025;-85
2022/05/28 00:25:26;;;;;;;1.55;0.90;;;;;;;24.16;46.55;99741.19;5056820;28;20025;-84
2022/05/28 00:27:53;;;;;;;1.52;0.90;;;;;;;24.16;46.33;99741.19;5039115;28;20028;-85
2022/05/28 00:30:19;;;;;;;1.60;0.80;;;;;;;24.15;46.45;99734.16;5040590;28;20125;-84
2022/05/28 00:32:45;;;;;;;1.30;0.80;;;;;;;24.15;46.37;99728.81;5039081;28;20039;-85
2022/05/28 00:35:15;;;;;;;1.95;1.08;;;;;;;24.12;46.41;99730.72;5038930;28;20024;-84
2022/05/28 00:37:42;;;;;;;1.67;0.80;;;;;;;24.11;46.41;99739.69;5056977;28;20461;-84
2022/05/28 00:40:12;;;;;;;2.17;1.00;;;;;;;24.09;46.26;99738.94;5039013;28;20033;-84
2022/05/28 00:42:38;;;;;;;2.65;0.93;;;;;;;24.09;46.57;99730.97;5039834;28;20040;-83
2022/05/28 00:45:04;;;;;;;1.83;1.10;;;;;;;24.07;46.41;99732.84;5039289;28;20029;-84
2022/05/28 00:47:31;;;;;;;1.23;0.80;;;;;;;24.06;46.46;99731.13;5039469;28;20025;-84
2022/05/28 00:49:57;;;;;;;1.83;1.00;;;;;;;24.06;46.65;99724.97;5039247;28;20033;-84
2022/05/28 00:52:25;;;;;;;1.13;0.77;;;;;;;24.05;46.38;99725.91;5038877;28;20425;-85
2022/05/28 00:54:52;;;;;;;1.33;0.88;;;;;;;24.04;46.36;99724.19;5038572;28;20057;-84
2022/05/28 00:57:20;;;;;;;0.70;0.65;;;;;;;24.03;46.60;99720.69;5056371;28;20029;-84
2022/05/28 00:59:46;;;;;;;1.08;0.82;;;;;;;24.02;46.56;99712.78;5038989;28;20024;-84
2022/05/28 01:02:21;;;;;;;1.73;0.90;;;;;;;23.99;46.42;99706.72;5049530;28;20080;-84
2022/05/28 01:05:00;;;;;;;1.92;0.93;;;;;;;23.98;46.43;99709.50;5076203;28;20040;-85
2022/05/28 01:07:49;;;;;;;1.60;0.90;;;;;;;23.98;46.44;99701.50;5058080;28;20041;-85
2022/05/28 01:10:34;;;;;;;1.63;0.95;;;;;;;23.96;46.57;99700.75;5060110;28;20028;-84
2022/05/28 01:13:14;;;;;;;1.48;0.80;;;;;;;23.96;46.53;99698.06;5058810;28;20449;-85
2022/05/28 01:15:58;;;;;;;1.83;0.73;;;;;;;23.94;46.27;99695.53;5058712;28;20083;-85
2022/05/28 01:18:39;;;;;;;1.27;1.00;;;;;;;23.93;46.59;99695.63;5059120;28;20029;-84
2022/05/28 01:21:42;;;;;;;1.13;0.88;;;;;;;23.92;46.45;99688.59;5059487;28;20454;-85
2022/05/28 01:24:44;;;;;;;1.58;0.98;;;;;;;23.92;46.40;99688.59;5077031;28;20430;-83
2022/05/28 01:27:16;;;;;;;2.13;0.75;;;;;;;23.89;46.48;99692.34;5057215;28;20032;-84
2022/05/28 01:29:48;;;;;;;1.60;1.00;;;;;;;23.89;46.54;99680.81;5056781;28;20024;-84
2022/05/28 01:32:16;;;;;;;1.60;0.85;;;;;;;23.89;46.45;99680.81;5058605;28;20388;-85
2022/05/28 01:34:43;;;;;;;1.00;0.73;;;;;;;23.87;46.50;99675.59;5079403;28;20036;-84
2022/05/28 01:37:10;;;;;;;1.98;0.90;;;;;;;23.87;46.38;99675.59;5060874;28;20517;-84
2022/05/28 01:39:38;;;;;;;1.67;0.90;;;;;;;23.85;46.63;99674.84;5079269;28;20039;-83
2022/05/28 01:42:06;;;;;;;1.40;0.82;;;;;;;23.84;46.31;99671.34;5059594;28;20025;-83
2022/05/28 01:44:33;;;;;;;2.45;1.25;;;;;;;23.84;46.38;99663.34;5060241;28;20039;-85
2022/05/28 01:46:59;;;;;;;1.35;0.70;;;;;;;23.85;46.52;99664.19;5061247;28;20037;-85
2022/05/28 01:49:26;;;;;;;1.33;1.00;;;;;;;23.83;46.31;99658.97;5060580;28;20430;-85
2022/05/28 01:51:56;;;;;;;2.05;1.05;;;;;;;23.83;46.40;99658.97;5078219;28;20115;-84
2022/05/28 01:54:30;;;;;;;1.42;0.90;;;;;;;23.82;46.42;99659.94;5078338;28;20103;-85
2022/05/28 01:56:56;;;;;;;2.83;0.93;;;;;;;23.80;46.34;99650.34;5060805;28;20052;-85
2022/05/28 01:59:33;;;;;;;2.50;1.10;;;;;;;23.81;46.56;99652.03;5061071;28;20442;-85
2022/05/28 02:02:01;;;;;;;1.25;0.70;;;;;;;23.80;46.38;99647.66;5068892;28;20088;-86
2022/05/28 02:04:28;;;;;;;1.60;0.93;;;;;;;23.78;46.28;99647.78;5058598;28;20063;-85
2022/05/28 02:06:54;;;;;;;0.88;0.60;;;;;;;23.76;46.26;99639.03;5041360;28;20025;-85
2022/05/28 02:09:24;;;;;;;1.40;0.77;;;;;;;23.76;46.41;99644.38;5043205;28;20477;-85
2022/05/28 02:12:01;;;;;;;1.27;0.75;;;;;;;23.75;46.42;99637.34;5045628;28;20037;-84
2022/05/28 02:14:41;;;;;;;0.95;0.70;;;;;;;23.74;46.58;99632.97;5045339;28;20036;-85
2022/05/28 02:17:22;;;;;;;1.38;0.80;;;;;;;23.73;46.46;99640.09;5045864;28;20047;-85
2022/05/28 02:20:02;;;;;;;1.48;0.93;;;;;;;23.74;46.40;99630.31;5045588;28;20093;-85
2022/05/28 02:22:39;;;;;;;1.08;0.60;;;;;;;23.72;46.44;99626.88;5045663;28;20035;-84
2022/05/28 02:25:13;;;;;;;1.40;0.95;;;;;;;23.72;46.40;99624.22;5047747;28;20043;-85
2022/05/28 02:27:41;;;;;;;1.50;0.80;;;;;;;23.70;46.52;99628.81;5065122;28;20053;-87
2022/05/28 02:30:09;;;;;;;1.27;0.65;;;;;;;23.70;46.47;99627.03;5046117;28;20037;-85
2022/05/28 02:32:35;;;;;;;1.23;0.77;;;;;;;23.68;46.36;99620.09;5060115;28;20025;-84
2022/05/28 02:35:00;;;;;;;2.65;1.10;;;;;;;23.69;46.35;99621.78;5041841;28;20098;-83
2022/05/28 02:37:29;;;;;;;1.40;0.80;;;;;;;23.67;46.51;99626.38;5041789;28;20108;-83
2022/05/28 02:39:57;;;;;;;1.35;0.75;;;;;;;23.67;46.49;99621.06;5041708;28;20386;-84
2022/05/28 02:42:23;;;;;;;2.00;0.82;;;;;;;23.66;46.45;99624.66;5041617;28;20107;-82
2022/05/28 02:44:49;;;;;;;1.45;0.85;;;;;;;23.65;46.42;99620.28;5041833;28;20489;-84
2022/05/28 02:47:15;;;;;;;1.80;0.70;;;;;;;23.64;46.57;99622.13;5058880;28;20021;-84
2022/05/28 02:49:41;;;;;;;2.10;1.05;;;;;;;23.65;46.39;99614.97;5041351;28;20370;-84
2022/05/28 02:52:08;;;;;;;1.38;0.90;;;;;;;23.63;46.60;99603.56;5043426;28;20528;-85
2022/05/28 02:54:34;;;;;;;1.13;0.70;;;;;;;23.62;46.58;99600.03;5057876;28;20104;-84
2022/05/28 02:57:00;;;;;;;1.85;0.73;;;;;;;23.60;46.50;99592.16;5058201;28;20036;-85
2022/05/28 02:59:26;;;;;;;1.05;0.82;;;;;;;23.62;46.31;99593.88;5040078;28;20028;-83
2022/05/28 03:01:51;;;;;;;1.75;0.98;;;;;;;23.60;46.54;99591.31;5041343;28;20119;-84
2022/05/28 03:04:18;;;;;;;0.95;0.80;;;;;;;23.58;46.53;99588.75;5040153;28;20528;-84
2022/05/28 03:06:44;;;;;;;1.58;0.90;;;;;;;23.58;46.52;99588.75;5040651;28;20021;-83
2022/05/28 03:09:10;;;;;;;1.52;0.80;;;;;;;23.57;46.48;99587.06;5040676;28;20545;-82
2022/05/28 03:11:38;;;;;;;1.38;0.82;;;;;;;23.57;46.45;99589.72;5057863;28;20059;-84
2022/05/28 03:14:04;;;;;;;1.58;0.82;;;;;;;23.55;46.43;99578.34;5040086;28;20021;-83
2022/05/28 03:16:30;;;;;;;1.85;1.08;;;;;;;23.54;46.50;99581.94;5039395;28;20037;-83
2022/05/28 03:18:55;;;;;;;1.20;0.90;;;;;;;23.55;46.57;99582.81;5039864;28;20029;-84
2022/05/28 03:21:21;;;;;;;1.70;0.85;;;;;;;23.53;46.65;99574.91;5058272;28;20067;-83
2022/05/28 03:23:50;;;;;;;2.45;0.70;;;;;;;23.54;46.62;99575.78;5042981;28;20029;-85
2022/05/28 03:26:19;;;;;;;1.60;0.98;;;;;;;23.52;46.63;99578.53;5061880;28;20517;-87
2022/05/28 03:28:45;;;;;;;1.67;0.88;;;;;;;23.51;46.58;99582.16;5044121;28;20060;-85
2022/05/28 03:31:11;;;;;;;1.70;0.90;;;;;;;23.50;46.41;99575.13;5042836;28;20039;-86
2022/05/28 03:33:36;;;;;;;1.95;1.00;;;;;;;23.49;46.55;99577.91;5043669;28;20029;-85
2022/05/28 03:36:03;;;;;;;1.05;0.75;;;;;;;23.50;46.72;99575.13;5042637;28;20040;-86
2022/05/28 03:38:28;;;;;;;1.45;0.85;;;;;;;23.47;46.85;99572.69;5059362;28;20024;-86
2022/05/28 03:40:54;;;;;;;1.80;0.77;;;;;;;23.49;46.48;99573.44;5060520;28;20028;-85
2022/05/28 03:43:20;;;;;;;1.30;0.80;;;;;;;23.48;46.54;99577.03;5044855;28;20115;-84
2022/05/28 03:45:45;;;;;;;1.48;0.73;;;;;;;23.46;46.66;99578.97;5042794;28;20045;-84
2022/05/28 03:48:11;;;;;;;1.02;0.70;;;;;;;23.46;46.56;99574.50;5041616;28;20477;-86
2022/05/28 03:50:37;;;;;;;1.70;0.93;;;;;;;23.46;46.60;99581.63;5040855;28;20028;-83
2022/05/28 03:53:03;;;;;;;1.75;1.00;;;;;;;23.44;46.63;99575.56;5059154;28;20200;-84
2022/05/28 03:55:29;;;;;;;1.85;0.90;;;;;;;23.44;46.49;99576.41;5041516;28;20527;-84
2022/05/28 03:57:54;;;;;;;1.45;0.85;;;;;;;23.42;46.52;99580.13;5059068;28;20029;-85
2022/05/28 04:00:20;;;;;;;1.23;0.73;;;;;;;23.42;46.59;99578.34;5041281;28;20028;-85
2022/05/28 04:02:46;;;;;;;1.55;0.73;;;;;;;23.41;46.70;99581.97;5056764;28;20048;-83
2022/05/28 04:05:12;;;;;;;2.38;1.20;;;;;;;23.41;46.65;99575.78;5061200;28;20025;-85
2022/05/28 04:07:38;;;;;;;1.40;1.00;;;;;;;23.39;46.66;99573.22;5060953;28;20465;-84
2022/05/28 04:10:05;;;;;;;1.75;0.80;;;;;;;23.38;46.63;99565.34;5060227;28;20115;-85
2022/05/28 04:12:31;;;;;;;1.60;0.77;;;;;;;23.38;46.67;99568.00;5078085;28;20025;-84
2022/05/28 04:14:57;;;;;;;2.45;1.10;;;;;;;23.37;46.72;99563.63;5060894;28;20029;-85
2022/05/28 04:17:23;;;;;;;1.58;1.00;;;;;;;23.37;46.49;99566.28;5062765;28;20029;-86
2022/05/28 04:19:48;;;;;;;1.60;0.90;;;;;;;23.36;46.52;99564.59;5062438;28;20032;-84
2022/05/28 04:22:14;;;;;;;1.40;1.00;;;;;;;23.33;46.75;99566.50;5079645;28;20028;-85
2022/05/28 04:24:40;;;;;;;1.23;0.77;;;;;;;23.32;46.67;99567.47;5078282;28;20028;-85
2022/05/28 04:27:05;;;;;;;1.80;1.00;;;;;;;23.31;46.87;99565.78;5057727;28;20461;-85
2022/05/28 04:29:31;;;;;;;2.30;1.02;;;;;;;23.32;46.74;99563.94;5057619;28;20040;-85
2022/05/28 04:31:56;;;;;;;1.23;0.70;;;;;;;23.30;46.74;99558.69;5057339;28;20436;-85
2022/05/28 04:34:22;;;;;;;1.25;0.80;;;;;;;23.29;46.71;99562.31;5059755;28;20055;-84
2022/05/28 04:36:48;;;;;;;1.50;0.98;;;;;;;23.29;46.62;99559.66;5062278;28;20381;-85
2022/05/28 04:39:13;;;;;;;2.22;0.80;;;;;;;23.28;46.67;99565.94;5061972;28;20024;-84
2022/05/28 04:41:39;;;;;;;2.50;1.05;;;;;;;23.28;46.69;99560.63;5062407;28;20028;-85
2022/05/28 04:44:04;;;;;;;2.42;0.90;;;;;;;23.28;46.60;99557.97;5063999;28;20025;-85
2022/05/28 04:46:30;;;;;;;1.83;0.73;;;;;;;23.27;46.66;99558.91;5064721;28;20124;-85
2022/05/28 04:48:55;;;;;;;1.67;1.00;;;;;;;23.27;46.72;99558.91;5063405;28;20043;-85
2022/05/28 04:51:21;;;;;;;1.75;0.90;;;;;;;23.26;46.51;99556.34;5063628;28;20091;-85
2022/05/28 04:53:47;;;;;;;1.20;1.00;;;;;;;23.24;46.58;99556.47;5064636;28;20028;-85
2022/05/28 04:56:14;;;;;;;1.38;0.90;;;;;;;23.24;46.84;99553.78;5062627;28;20449;-86
2022/05/28 04:58:41;;;;;;;2.40;0.90;;;;;;;23.24;46.73;99553.78;5062220;28;20115;-85
2022/05/28 05:01:10;;;;;;;1.50;0.90;;;;;;;23.23;46.79;99552.09;5062038;28;20028;-85
2022/05/28 05:03:35;;;;;;;1.48;0.90;;;;;;;23.23;46.72;99562.75;5078163;28;20032;-84
2022/05/28 05:06:01;;;;;;;2.20;1.25;;;;;;;23.23;46.81;99562.75;5058616;28;20035;-84
2022/05/28 05:08:27;;;;;;;1.73;1.00;;;;;;;23.22;47.02;99561.03;5076215;28;20029;-84
2022/05/28 05:10:53;;;;;;;1.85;1.08;;;;;;;23.21;46.68;99548.69;5058821;28;20056;-83
2022/05/28 05:13:18;;;;;;;1.92;1.08;;;;;;;23.22;46.61;99555.72;5058492;28;20031;-84
2022/05/28 05:15:44;;;;;;;1.55;0.70;;;;;;;23.22;46.61;99552.19;5075735;28;20043;-83
2022/05/28 05:18:09;;;;;;;1.55;0.93;;;;;;;23.22;46.56;99553.06;5058618;28;20028;-82
2022/05/28 05:20:35;;;;;;;2.25;1.23;;;;;;;23.20;46.69;99552.31;5058453;28;20400;-84
2022/05/28 05:23:01;;;;;;;1.27;0.90;;;;;;;23.20;46.51;99552.31;5058336;28;20127;-83
2022/05/28 05:25:26;;;;;;;1.60;1.00;;;;;;;23.20;46.79;99547.00;5058476;28;20123;-84
2022/05/28 05:27:52;;;;;;;1.77;1.02;;;;;;;23.20;46.62;99544.34;5058760;28;20036;-84
2022/05/28 05:30:18;;;;;;;1.20;0.80;;;;;;;23.20;46.66;99552.31;5059246;28;20035;-82
2022/05/28 05:32:44;;;;;;;2.53;1.20;;;;;;;23.20;46.50;99545.16;5081358;28;20055;-85
2022/05/28 05:35:09;;;;;;;1.88;1.08;;;;;;;23.20;46.60;99547.00;5061354;28;20028;-85
2022/05/28 05:37:35;;;;;;;1.38;0.90;;;;;;;23.20;46.62;99547.84;5063262;28;20028;-85
2022/05/28 05:40:01;;;;;;;1.48;1.08;;;;;;;23.20;46.54;99541.69;5064057;28;20029;-85
2022/05/28 05:42:26;;;;;;;1.88;1.17;;;;;;;23.20;46.70;99541.69;5062119;28;20029;-84
2022/05/28 05:44:53;;;;;;;2.13;1.02;;;;;;;23.20;46.64;99547.00;5064238;28;20123;-84
2022/05/28 05:47:19;;;;;;;1.67;0.90;;;;;;;23.20;46.52;99547.00;5083944;28;20043;-85
2022/05/28 05:49:45;;;;;;;2.03;1.00;;;;;;;23.21;46.69;99546.03;5064959;28;20084;-85
2022/05/28 05:52:10;;;;;;;1.35;0.85;;;;;;;23.20;46.69;99536.34;5065098;28;20047;-85
2022/05/28 05:54:36;;;;;;;2.50;0.93;;;;;;;23.21;46.60;99543.38;5065189;28;20376;-85
2022/05/28 05:57:02;;;;;;;1.38;0.98;;;;;;;23.20;46.58;99542.50;5078269;28;20032;-84
2022/05/28 05:59:28;;;;;;;2.90;1.17;;;;;;;23.21;46.66;99548.69;5061910;28;20032;-85
2022/05/28 06:01:53;;;;;;;2.63;1.10;;;;;;;23.21;46.58;99548.69;5078147;28;20054;-84
2022/05/28 06:04:19;;;;;;;2.15;0.90;;;;;;;23.21;46.67;99540.72;5078246;28;20035;-83
2022/05/28 06:06:45;;;;;;;1.50;1.00;;;;;;;23.23;46.87;99548.59;5060473;28;20035;-84
2022/05/28 06:09:10;;;;;;;2.53;1.17;;;;;;;23.20;46.71;99547.00;5060347;28;20025;-83
2022/05/28 06:11:36;;;;;;;2.38;0.90;;;;;;;23.22;46.76;99541.53;5063856;28;20365;-84
2022/05/28 06:14:03;;;;;;;1.92;1.10;;;;;;;23.23;46.62;99536.13;5063068;28;20035;-84
2022/05/28 06:16:29;;;;;;;1.30;1.05;;;;;;;23.26;46.65;99535.94;5062376;28;20025;-84
2022/05/28 06:18:54;;;;;;;1.65;0.80;;;;;;;23.27;46.63;99534.97;5080166;28;20078;-84
2022/05/28 06:21:20;;;;;;;1.73;1.00;;;;;;;23.29;46.51;99535.69;5081209;28;20416;-84
2022/05/28 06:23:46;;;;;;;1.70;0.90;;;;;;;23.30;46.68;99532.06;5062577;28;20039;-84
2022/05/28 06:26:12;;;;;;;1.25;0.88;;;;;;;23.32;46.47;99535.53;5080696;28;20090;-85
2022/05/28 06:28:38;;;;;;;1.90;1.20;;;;;;;23.33;46.70;99526.56;5062340;28;20445;-85
2022/05/28 06:31:06;;;;;;;2.22;1.00;;;;;;;23.37;46.61;99531.66;5079736;28;20025;-84
2022/05/28 06:33:33;;;;;;;1.02;0.82;;;;;;;23.39;46.59;99530.59;5061990;28;20024;-85
2022/05/28 06:36:02;;;;;;;1.60;0.95;;;;;;;23.40;46.51;99529.66;5062660;28;20039;-85
2022/05/28 06:38:27;;;;;;;1.73;1.13;;;;;;;23.43;46.19;99523.25;5062804;28;20028;-85
2022/05/28 06:40:53;;;;;;;2.53;1.10;;;;;;;23.43;46.35;99531.25;5080308;28;20024;-84
2022/05/28 06:43:20;;;;;;;2.28;1.00;;;;;;;23.44;46.30;99527.63;5062170;28;20032;-85
2022/05/28 06:45:46;;;;;;;2.10;1.10;;;;;;;23.46;46.30;99525.72;5079402;28;20105;-83
2022/05/28 06:48:12;;;;;;;1.60;1.08;;;;;;;23.46;46.39;99531.03;5081899;28;20028;-84
2022/05/28 06:53:21;;;;;;;1.67;1.13;;;;;;;23.50;46.28;99527.22;5081214;28;20055;-85
2022/05/28 06:55:48;;;;;;;1.55;1.08;;;;;;;23.51;46.26;99528.91;5063230;28;20028;-85
2022/05/28 06:58:14;;;;;;;2.13;1.20;;;;;;;23.51;46.39;99528.91;5064043;28;20024;-85
2022/05/28 07:00:40;;;;;;;1.70;1.08;;;;;;;23.54;46.38;99531.34;5082394;28;20055;-85
2022/05/28 07:03:11;;;;;;;1.92;1.10;;;;;;;23.53;46.45;99532.28;5064263;28;20442;-85
2022/05/28 07:05:36;;;;;;;2.92;1.13;;;;;;;23.53;46.19;99526.97;5083431;28;20089;-85
2022/05/28 07:08:02;;;;;;;1.33;0.93;;;;;;;23.50;46.25;99527.22;5083725;28;20028;-86
2022/05/28 07:10:28;;;;;;;1.50;1.00;;;;;;;23.51;46.62;99528.91;5067017;28;20044;-86
2022/05/28 07:12:53;;;;;;;1.50;1.02;;;;;;;23.53;46.54;99536.78;5067062;28;20036;-86
2022/05/28 07:15:19;;;;;;;1.63;1.08;;;;;;;23.52;46.40;99535.94;5067336;28;20047;-86
2022/05/28 07:17:44;;;;;;;1.92;0.90;;;;;;;23.53;46.61;99537.63;5067245;28;20342;-85
2022/05/28 07:20:11;;;;;;;1.25;1.02;;;;;;;23.56;46.54;99537.41;5068060;28;20055;-86
2022/05/28 07:22:36;;;;;;;1.35;0.88;;;;;;;23.55;46.48;99540.19;5062489;28;20093;-85
2022/05/28 07:25:03;;;;;;;1.95;0.90;;;;;;;23.54;46.56;99534.00;5065219;28;20086;-84
2022/05/28 07:27:29;;;;;;;1.65;1.00;;;;;;;23.55;46.41;99533.06;5060079;28;20036;-85
2022/05/28 07:29:55;;;;;;;1.75;1.13;;;;;;;23.57;46.48;99535.59;5079618;28;20024;-85
2022/05/28 07:32:24;;;;;;;2.33;1.20;;;;;;;23.57;46.38;99539.13;5081344;28;20082;-85
2022/05/28 07:34:51;;;;;;;1.92;1.00;;;;;;;23.59;46.47;99539.84;5065675;28;20043;-85
2022/05/28 07:37:17;;;;;;;3.03;1.42;;;;;;;23.59;46.50;99529.19;5064395;28;20024;-85
2022/05/28 07:39:42;;;;;;;1.98;0.95;;;;;;;23.62;46.84;99529.97;5062724;28;20070;-85
2022/05/28 07:42:08;;;;;;;1.92;1.08;;;;;;;23.64;46.64;99528.03;5061322;28;20039;-85
2022/05/28 07:44:34;;;;;;;1.85;1.30;;;;;;;23.65;46.50;99529.72;5062834;28;20035;-84
2022/05/28 07:47:07;;;;;;;1.23;0.98;;;;;;;23.66;46.62;99524.28;5063043;28;20038;-85
2022/05/28 07:49:36;;;;;;;2.28;1.20;;;;;;;23.69;46.43;99520.56;5079869;28;20050;-85
2022/05/28 07:52:02;;;;;;;1.27;0.93;;;;;;;23.70;46.49;99524.91;5062196;28;20377;-85
2022/05/28 07:54:27;;;;;;;1.33;0.98;;;;;;;23.72;46.35;99515.00;5060713;28;20442;-85
2022/05/28 07:56:53;;;;;;;1.67;1.00;;;;;;;23.73;46.38;99522.06;5061441;28;20054;-84
2022/05/28 07:59:18;;;;;;;1.52;1.00;;;;;;;23.74;46.49;99518.41;5061101;28;20036;-84
2022/05/28 08:01:44;;;;;;;2.60;1.23;;;;;;;23.77;46.20;99518.19;5060207;28;20084;-84
2022/05/28 08:04:11;;;;;;;2.15;1.35;;;;;;;23.78;46.60;99522.53;5078499;28;20043;-83
2022/05/28 08:06:37;;;;;;;2.25;1.23;;;;;;;23.79;46.25;99515.41;5060324;28;20024;-84
2022/05/28 08:09:05;;;;;;;2.33;1.33;;;;;;;23.81;46.41;99514.34;5078497;28;20032;-84
2022/05/28 08:11:31;;;;;;;1.75;1.08;;;;;;;23.84;46.21;99513.28;5060719;28;20028;-85
2022/05/28 08:13:57;;;;;;;3.15;1.30;;;;;;;23.86;46.13;99512.19;5078588;28;20021;-85
2022/05/28 08:16:23;;;;;;;1.55;1.05;;;;;;;23.87;46.16;99513.91;5059834;28;20044;-84
2022/05/28 08:18:48;;;;;;;1.88;1.25;;;;;;;23.90;46.16;99511.97;5060955;28;20028;-85
2022/05/28 08:23:58;;;;;;;1.65;1.05;;;;;;;23.94;46.14;99514.31;5078805;28;20039;-84
2022/05/28 08:26:24;;;;;;;2.10;1.10;;;;;;;23.95;46.39;99509.81;5061465;28;20028;-86
2022/05/28 08:28:51;;;;;;;1.58;0.85;;;;;;;23.96;45.95;99512.38;5061065;28;20210;-83
2022/05/28 08:31:18;;;;;;;1.90;1.08;;;;;;;23.97;46.14;99510.56;5060467;28;20043;-84
2022/05/28 08:33:44;;;;;;;2.17;1.05;;;;;;;23.99;46.05;99509.50;5063360;28;20058;-85
2022/05/28 08:36:10;;;;;;;3.10;1.20;;;;;;;24.02;45.98;99511.06;5061222;28;20094;-84
2022/05/28 08:38:37;;;;;;;2.97;1.20;;;;;;;24.03;46.01;99504.78;5078062;28;20024;-83
2022/05/28 08:41:16;;;;;;;2.70;1.27;;;;;;;24.06;46.06;99501.06;5061397;28;20032;-85
2022/05/28 08:43:45;;;;;;;1.27;0.90;;;;;;;24.08;46.15;99505.34;5060510;28;20024;-84
2022/05/28 08:46:13;;;;;;;1.75;1.20;;;;;;;24.08;46.00;99494.69;5060655;28;20095;-84
2022/05/28 08:48:51;;;;;;;2.55;1.20;;;;;;;24.10;45.67;99495.41;5078795;28;20449;-83
2022/05/28 08:51:25;;;;;;;2.38;0.90;;;;;;;24.12;45.77;99500.63;5061653;28;20032;-85
2022/05/28 08:54:00;;;;;;;1.80;1.10;;;;;;;24.12;45.88;99490.81;5078639;28;20024;-84
2022/05/28 08:56:29;;;;;;;3.15;1.10;;;;;;;24.13;45.85;99489.84;5061473;28;20028;-84
2022/05/28 08:59:03;;;;;;;1.98;1.08;;;;;;;24.15;45.67;99480.91;5059980;28;20022;-84
2022/05/28 09:01:32;;;;;;;1.90;1.00;;;;;;;24.17;45.91;99485.16;5058630;28;20469;-83
2022/05/28 09:04:03;;;;;;;1.33;0.82;;;;;;;24.19;45.82;99479.69;5076766;28;20107;-84
2022/05/28 09:06:43;;;;;;;1.77;1.25;;;;;;;24.21;45.82;99477.78;5058811;28;20028;-82
2022/05/28 09:09:12;;;;;;;1.45;1.00;;;;;;;24.22;45.82;99474.13;5058746;28;20038;-83
2022/05/28 09:11:42;;;;;;;2.97;0.98;;;;;;;24.24;45.90;99477.53;5059351;28;20039;-83
2022/05/28 09:14:31;;;;;;;1.50;0.88;;;;;;;24.26;45.51;99464.94;5061331;28;20032;-85
2022/05/28 09:17:11;;;;;;;1.98;1.40;;;;;;;24.27;45.68;99470.16;5061646;28;20058;-82
2022/05/28 09:19:41;;;;;;;1.48;1.00;;;;;;;24.29;45.89;99472.72;5068035;28;20028;-84
2022/05/28 09:22:07;;;;;;;1.73;1.00;;;;;;;24.30;45.92;99471.72;5086866;28;20111;-84
2022/05/28 09:24:33;;;;;;;1.40;0.90;;;;;;;24.31;45.96;99478.75;5070890;28;20028;-85
2022/05/28 09:27:22;;;;;;;1.88;1.00;;;;;;;24.33;45.57;99465.31;5071332;28;20048;-85
2022/05/28 09:30:15;;;;;;;1.65;1.20;;;;;;;24.36;45.62;99475.78;5062905;28;20039;-86
2022/05/28 09:33:30;;;;;;;1.52;1.00;;;;;;;24.38;45.34;99474.69;5071607;28;20024;-85
2022/05/28 09:36:04;;;;;;;2.42;1.20;;;;;;;24.40;45.49;99472.75;5066045;28;20044;-86
2022/05/28 09:38:33;;;;;;;1.65;0.98;;;;;;;24.41;45.76;99468.28;5071701;28;20040;-85
2022/05/28 09:41:31;;;;;;;1.38;1.00;;;;;;;24.44;45.39;99467.19;5072192;28;20032;-85
2022/05/28 09:44:18;;;;;;;2.15;1.10;;;;;;;24.45;45.61;99472.41;5059637;28;20039;-85
2022/05/28 09:46:45;;;;;;;1.83;1.10;;;;;;;24.48;45.67;99468.66;5068680;28;20032;-84
2022/05/28 09:49:24;;;;;;;1.48;0.98;;;;;;;24.49;45.42;99470.34;5065888;28;20037;-84
2022/05/28 09:51:58;;;;;;;2.03;1.30;;;;;;;24.50;45.66;99461.41;5066502;28;20035;-85
2022/05/28 09:54:33;;;;;;;1.15;1.00;;;;;;;24.51;45.54;99457.75;5067098;28;20027;-85
2022/05/28 09:57:10;;;;;;;2.50;1.17;;;;;;;24.52;45.58;99459.44;5086702;28;20055;-84
2022/05/28 09:59:49;;;;;;;1.75;1.10;;;;;;;24.54;45.39;99457.50;5084833;28;20027;-85
2022/05/28 10:02:20;;;;;;;2.58;0.98;;;;;;;24.56;45.62;99458.25;5065925;28;20086;-83
2022/05/28 10:04:51;;;;;;;2.88;1.30;;;;;;;24.58;45.63;99445.66;5067096;28;20552;-84
2022/05/28 10:07:32;;;;;;;1.92;0.93;;;;;;;24.60;45.22;99449.03;5066681;28;20400;-84
2022/05/28 10:09:58;;;;;;;2.15;1.17;;;;;;;24.62;45.70;99439.13;5066754;28;20025;-84
2022/05/28 10:12:27;;;;;;;2.67;1.10;;;;;;;24.62;45.40;99444.44;5067288;28;20107;-83
2022/05/28 10:15:05;;;;;;;1.50;0.90;;;;;;;24.65;45.18;99435.38;5071006;28;20024;-84
2022/05/28 10:17:32;;;;;;;1.23;1.00;;;;;;;24.66;45.19;99429.06;5068967;28;20101;-84
2022/05/28 10:20:01;;;;;;;2.17;1.25;;;;;;;24.68;45.44;99437.78;5083855;28;20075;-86
2022/05/28 10:22:29;;;;;;;1.38;1.00;;;;;;;24.69;45.37;99434.13;5066806;28;20020;-84
2022/05/28 10:25:00;;;;;;;2.05;1.17;;;;;;;24.71;45.65;99434.88;5066134;28;20020;-84
2022/05/28 10:27:37;;;;;;;1.55;0.90;;;;;;;24.71;45.41;99426.03;5065983;28;20020;-84
2022/05/28 10:30:24;;;;;;;1.27;1.00;;;;;;;24.73;45.25;99432.06;5080952;28;20178;-85
2022/05/28 10:32:51;;;;;;;1.23;1.00;;;;;;;24.75;45.49;99422.16;5080638;28;20021;-84
2022/05/28 10:35:20;;;;;;;2.30;1.00;;;;;;;24.76;45.18;99419.38;5063256;28;20361;-84
2022/05/28 10:37:47;;;;;;;2.15;1.08;;;;;;;24.77;45.19;99415.72;5063111;28;20028;-83
2022/05/28 10:40:19;;;;;;;1.27;0.82;;;;;;;24.79;45.22;99412.94;5062629;28;20020;-82
2022/05/28 10:42:47;;;;;;;1.65;1.10;;;;;;;24.81;45.16;99405.69;5061790;28;20020;-84
2022/05/28 10:45:17;;;;;;;2.05;1.30;;;;;;;24.82;45.43;99407.38;5061449;28;20461;-85
2022/05/28 10:48:23;;;;;;;2.35;1.20;;;;;;;24.83;45.15;99411.75;5061672;28;20020;-83
2022/05/28 10:51:02;;;;;;;1.57;0.97;;;;;;;24.85;45.44;99408.97;5064089;28;20032;-85
2022/05/28 10:53:56;;;;;;;2.00;1.02;;;;;;;24.86;44.99;99414.19;5080136;28;20404;-85
2022/05/28 10:56:27;;;;;;;2.08;1.15;;;;;;;24.88;45.27;99408.72;5046632;28;20040;-83
2022/05/28 10:59:10;;;;;;;1.58;0.95;;;;;;;24.90;45.17;99402.28;5062107;28;20028;-84
2022/05/28 11:01:40;;;;;;;2.00;0.90;;;;;;;24.91;45.23;99396.00;5081855;28;20063;-84
2022/05/28 11:04:41;;;;;;;2.35;1.10;;;;;;;24.92;45.15;99392.34;5063575;28;20039;-84
2022/05/28 11:07:38;;;;;;;2.00;1.10;;;;;;;24.94;44.99;99385.06;5061659;28;20522;-84
2022/05/28 11:10:10;;;;;;;2.30;1.20;;;;;;;24.97;45.20;99385.78;5080284;28;20469;-86
2022/05/28 11:12:42;;;;;;;1.30;0.90;;;;;;;24.97;45.14;99375.09;5061900;28;20028;-85
2022/05/28 11:15:17;;;;;;;1.92;1.10;;;;;;;24.99;45.03;99382.03;5061823;28;20032;-84
2022/05/28 11:17:49;;;;;;;2.30;1.17;;;;;;;25.00;44.95;99380.22;5060956;28;20028;-82
2022/05/28 11:20:21;;;;;;;1.77;1.20;;;;;;;25.02;45.14;99373.78;5079294;28;20025;-86
2022/05/28 11:23:34;;;;;;;1.80;1.05;;;;;;;25.03;45.05;99364.81;5061868;28;20056;-86
2022/05/28 11:26:11;;;;;;;2.20;1.20;;;;;;;25.06;45.14;99369.03;4983007;28;20033;-84
2022/05/28 11:28:46;;;;;;;1.40;0.90;;;;;;;25.07;45.04;99373.41;4982622;28;20038;-85
2022/05/28 11:31:30;;;;;;;1.73;1.13;;;;;;;25.09;45.02;99368.81;5043619;28;20036;-85
2022/05/28 11:34:00;;;;;;;2.05;1.35;;;;;;;25.10;45.12;99373.19;5061633;28;20032;-83
2022/05/28 11:36:36;;;;;;;2.67;1.20;;;;;;;25.12;44.96;99360.53;5061778;28;20032;-85
2022/05/28 11:39:32;;;;;;;1.50;0.98;;;;;;;25.13;44.76;99350.72;5061611;28;20414;-83
2022/05/28 11:42:23;;;;;;;2.33;1.00;;;;;;;25.15;45.19;99351.44;5061928;28;20039;-84
2022/05/28 11:44:56;;;;;;;1.50;1.00;;;;;;;25.16;45.23;99356.66;5062485;28;20041;-82
2022/05/28 11:47:25;;;;;;;2.45;1.00;;;;;;;25.17;44.92;99350.34;5061353;28;20024;-82
2022/05/28 11:52:53;;;;;;;1.35;1.10;;;;;;;25.20;45.54;99352.78;5082057;28;20031;-86
2022/05/28 11:55:22;;;;;;;1.75;1.15;;;;;;;25.22;45.29;99354.47;5064514;28;20054;-83